Time;durP1;ratioP1;P1;durP2;ratioP2;P2;SDS_P1;SDS_P2;PMS_P1;PMS_P2;Temp;Humidity;BMP_temperature;BMP_pressure;BME280_temperature;BME280_humidity;BME280_pressure;Samples;Min_cycle;Max_cycle;Signal;HPM_P1;HPM_P2
2022/02/04 00:09:10;;;;;;;0.70;0.50;;;7.40;99.90;;;;;;4930962;29;20855;-74
2022/02/04 00:24:44;;;;;;;1.33;0.90;;;7.40;99.90;;;;;;5014306;28;20586;-74
2022/02/04 00:27:16;;;;;;;1.00;1.00;;;7.40;99.90;;;;;;5013655;28;20482;-74
2022/02/04 00:29:53;;;;;;;0.70;0.43;;;7.40;99.90;;;;;;4995691;28;20215;-74
2022/02/04 00:32:21;;;;;;;0.90;0.90;;;7.50;99.90;;;;;;4996269;28;20406;-74
2022/02/04 00:34:53;;;;;;;0.70;0.50;;;7.50;99.90;;;;;;5013763;28;20461;-74
2022/02/04 00:37:41;;;;;;;1.00;0.80;;;7.50;99.90;;;;;;5013791;28;20787;-74
2022/02/04 00:40:14;;;;;;;0.70;0.50;;;7.50;99.90;;;;;;4994551;28;20424;-74
2022/02/04 00:42:40;;;;;;;0.83;0.83;;;7.50;99.90;;;;;;5010786;28;20926;-74
2022/02/04 00:45:18;;;;;;;0.60;0.50;;;7.60;99.90;;;;;;5014603;28;20421;-74
2022/02/04 00:47:49;;;;;;;3.83;1.10;;;7.60;99.90;;;;;;5013684;28;20169;-74
2022/02/04 00:50:27;;;;;;;0.70;0.50;;;7.50;99.90;;;;;;4995632;28;20555;-74
2022/02/04 00:53:07;;;;;;;0.63;0.60;;;7.60;99.90;;;;;;5013594;28;20413;-74
2022/02/04 00:55:49;;;;;;;0.70;0.53;;;7.50;99.90;;;;;;5006709;28;20415;-74
2022/02/04 01:25:57;;;;;;;0.70;0.60;;;7.60;99.90;;;;;;5007965;28;20462;-73
2022/02/04 01:28:25;;;;;;;0.70;0.50;;;7.60;99.90;;;;;;5030079;28;20464;-74
2022/02/04 01:30:53;;;;;;;0.70;0.50;;;7.60;99.90;;;;;;5009076;28;20486;-74
2022/02/04 01:33:18;;;;;;;2.20;0.70;;;7.60;99.90;;;;;;4995061;28;20469;-74
2022/02/04 01:35:44;;;;;;;1.17;1.07;;;7.60;99.90;;;;;;5012551;28;20816;-74
2022/02/04 01:38:10;;;;;;;0.70;0.50;;;7.60;99.90;;;;;;5012101;28;20239;-74
2022/02/04 01:40:35;;;;;;;0.70;0.60;;;7.60;99.90;;;;;;5012174;28;20176;-74
2022/02/04 01:43:01;;;;;;;0.67;0.50;;;7.60;99.90;;;;;;5012076;28;20852;-74
2022/02/04 01:45:27;;;;;;;0.70;0.50;;;7.70;99.90;;;;;;5030779;28;20532;-74
2022/02/04 01:47:54;;;;;;;4.60;2.00;;;7.70;99.90;;;;;;4996263;28;20195;-74
2022/02/04 01:50:21;;;;;;;0.70;0.40;;;7.70;99.90;;;;;;5013705;28;20200;-74
2022/02/04 01:52:46;;;;;;;0.90;0.80;;;7.70;99.90;;;;;;4996090;28;20423;-74
2022/02/04 01:55:14;;;;;;;1.00;0.90;;;7.70;99.90;;;;;;5012295;28;20498;-74
2022/02/04 01:57:39;;;;;;;0.73;0.50;;;7.70;99.90;;;;;;5014331;28;20509;-73
2022/02/04 02:00:06;;;;;;;0.70;0.50;;;7.70;99.90;;;;;;5019798;28;20461;-74
2022/02/04 02:02:31;;;;;;;0.70;0.50;;;7.70;99.90;;;;;;5030968;28;20175;-74
2022/02/04 02:04:57;;;;;;;4.20;1.70;;;7.70;99.90;;;;;;5002534;28;20442;-74
2022/02/04 02:07:25;;;;;;;0.63;0.40;;;7.70;99.90;;;;;;5012274;28;20183;-74
2022/02/04 02:10:00;;;;;;;0.70;0.60;;;7.70;99.90;;;;;;5011511;28;20556;-74
2022/02/04 02:12:32;;;;;;;0.70;0.40;;;7.70;99.90;;;;;;5012327;28;20398;-74
2022/02/04 02:15:28;;;;;;;1.23;1.13;;;7.70;99.90;;;;;;5012247;28;20384;-74
2022/02/04 02:52:41;;;;;;;1.13;1.03;;;7.70;99.90;;;;;;5026195;28;20437;-74
2022/02/04 02:55:27;;;;;;;0.70;0.60;;;7.70;99.90;;;;;;5021951;28;20461;-74
2022/02/04 02:58:06;;;;;;;0.90;0.90;;;7.80;99.90;;;;;;5008974;28;20797;-74
2022/02/04 03:01:15;;;;;;;0.80;0.63;;;7.70;99.90;;;;;;5016168;28;20859;-74
2022/02/04 03:03:23;;;;;;;0.70;0.50;;;7.70;99.90;;;;;;5022243;28;20469;-74
2022/02/04 03:05:49;;;;;;;0.70;0.60;;;7.70;99.90;;;;;;5000671;28;20415;-74
2022/02/04 03:08:16;;;;;;;1.07;1.03;;;7.80;99.90;;;;;;5017742;28;20427;-74
2022/02/04 03:10:41;;;;;;;2.30;0.80;;;7.80;99.90;;;;;;5017742;28;20454;-74
2022/02/04 03:13:07;;;;;;;1.63;1.27;;;7.80;99.90;;;;;;5020461;28;20430;-74
2022/02/04 03:15:35;;;;;;;0.80;0.80;;;7.80;99.90;;;;;;5034350;28;20297;-74
2022/02/04 03:18:18;;;;;;;0.70;0.50;;;7.80;99.90;;;;;;5012350;28;20175;-74
2022/02/04 03:20:48;;;;;;;0.70;0.50;;;7.80;99.90;;;;;;5025675;28;20441;-74
2022/02/04 03:23:14;;;;;;;0.70;0.70;;;7.80;99.90;;;;;;5026487;28;20442;-74
2022/02/04 03:25:45;;;;;;;1.23;1.03;;;7.80;99.90;;;;;;5035242;28;20435;-74
2022/02/04 03:28:15;;;;;;;0.70;0.40;;;7.80;99.90;;;;;;5022605;28;20512;-74
2022/02/04 03:30:42;;;;;;;0.70;0.50;;;7.90;99.90;;;;;;5002111;28;20461;-73
2022/02/04 03:33:09;;;;;;;0.70;0.43;;;7.90;99.90;;;;;;5013114;28;20834;-74
2022/02/04 03:35:35;;;;;;;1.00;0.90;;;7.90;99.90;;;;;;5020314;28;20426;-74
2022/02/04 03:38:01;;;;;;;0.70;0.60;;;7.90;99.90;;;;;;5028869;28;20434;-74
2022/02/04 03:40:27;;;;;;;0.70;0.40;;;7.90;99.90;;;;;;5017672;28;20860;-74
2022/02/04 03:42:52;;;;;;;0.70;0.70;;;7.90;99.90;;;;;;5023640;28;20445;-74
2022/02/04 03:45:20;;;;;;;0.70;0.40;;;7.90;99.90;;;;;;5028501;28;20441;-74
2022/02/04 03:47:46;;;;;;;0.70;0.40;;;8.00;99.90;;;;;;5030086;28;20611;-74
2022/02/04 03:50:11;;;;;;;1.40;1.10;;;7.90;99.90;;;;;;5017722;28;20562;-74
2022/02/04 03:52:41;;;;;;;2.77;1.47;;;7.90;99.90;;;;;;5026233;28;20171;-74
2022/02/04 03:55:08;;;;;;;0.70;0.50;;;7.90;99.90;;;;;;5018698;28;20180;-74
2022/02/04 03:57:34;;;;;;;0.70;0.50;;;7.90;99.90;;;;;;5021899;28;20940;-74
2022/02/04 04:00:00;;;;;;;0.70;0.50;;;7.90;99.90;;;;;;5013429;28;20462;-74
2022/02/04 04:02:26;;;;;;;1.17;1.13;;;7.90;99.90;;;;;;5021800;28;20427;-74
2022/02/04 04:04:52;;;;;;;0.70;0.50;;;7.80;99.90;;;;;;5022907;28;20188;-74
2022/02/04 04:07:18;;;;;;;2.53;1.00;;;7.80;99.90;;;;;;5023546;28;20195;-74
2022/02/04 04:09:52;;;;;;;0.70;0.60;;;7.70;99.90;;;;;;4996470;28;20466;-74
2022/02/04 04:12:19;;;;;;;0.70;0.50;;;7.70;99.90;;;;;;4996721;28;20168;-74
2022/02/04 04:14:48;;;;;;;0.83;0.80;;;7.70;99.90;;;;;;4995166;28;20431;-73
2022/02/04 04:17:13;;;;;;;0.70;0.50;;;7.70;99.90;;;;;;5028317;28;20422;-74
2022/02/04 04:19:39;;;;;;;0.60;0.40;;;7.70;99.90;;;;;;5031113;28;20457;-74
2022/02/04 04:22:04;;;;;;;2.20;0.73;;;7.60;99.90;;;;;;5021900;28;20592;-73
2022/02/04 04:24:30;;;;;;;0.70;0.60;;;7.60;99.90;;;;;;5027105;28;20510;-74
2022/02/04 04:26:55;;;;;;;0.60;0.40;;;7.60;99.90;;;;;;5019124;28;20184;-73
2022/02/04 04:29:21;;;;;;;1.13;0.83;;;7.60;99.90;;;;;;5022398;28;20199;-74
2022/02/04 04:31:46;;;;;;;0.70;0.50;;;7.60;99.90;;;;;;5023208;28;20199;-74
2022/02/04 04:34:12;;;;;;;0.97;0.53;;;7.60;99.90;;;;;;5012197;28;20683;-74
2022/02/04 04:36:38;;;;;;;0.70;0.50;;;7.70;99.90;;;;;;5024873;28;20799;-74
2022/02/04 04:42:18;;;;;;;0.73;0.70;;;7.70;99.90;;;;;;5023174;28;20653;-74
2022/02/04 05:27:57;;;;;;;0.83;0.70;;;7.90;99.90;;;;;;5012062;28;20407;-74
2022/02/04 05:30:23;;;;;;;0.70;0.40;;;7.90;99.90;;;;;;5014589;28;20828;-74
2022/02/04 05:32:48;;;;;;;0.80;0.80;;;7.90;99.90;;;;;;5030623;28;20423;-74
2022/02/04 05:35:17;;;;;;;0.70;0.50;;;7.90;99.90;;;;;;5023703;28;20183;-74
2022/02/04 05:37:45;;;;;;;0.97;0.60;;;7.90;99.90;;;;;;5002978;28;20700;-74
2022/02/04 05:40:15;;;;;;;0.67;0.50;;;7.90;99.90;;;;;;5028217;28;20455;-75
2022/02/04 05:42:48;;;;;;;0.73;0.70;;;7.90;99.90;;;;;;5020067;28;20429;-74
2022/02/04 05:45:20;;;;;;;0.70;0.50;;;7.90;99.90;;;;;;5007214;28;20481;-72
2022/02/04 05:47:48;;;;;;;0.70;0.70;;;7.90;99.90;;;;;;5011696;28;20776;-74
2022/02/04 05:55:38;;;;;;;0.70;0.40;;;7.90;99.90;;;;;;5024608;28;20450;-73
2022/02/04 06:03:39;;;;;;;0.70;0.40;;;7.90;99.90;;;;;;5013498;28;20641;-74
2022/02/04 06:06:28;;;;;;;0.70;0.40;;;7.90;99.90;;;;;;5018508;28;20430;-73
2022/02/04 06:22:22;;;;;;;0.70;0.40;;;7.80;99.90;;;;;;5022256;28;20506;-73
2022/02/04 06:24:49;;;;;;;0.70;0.50;;;7.90;99.90;;;;;;5026140;28;20496;-75
2022/02/04 06:27:17;;;;;;;0.70;0.40;;;7.90;99.90;;;;;;5014435;28;20514;-75
2022/02/04 06:29:44;;;;;;;0.90;0.80;;;7.90;99.90;;;;;;5003995;28;20447;-74
2022/02/04 06:32:10;;;;;;;0.70;0.50;;;7.90;99.90;;;;;;5026304;28;20462;-72
2022/02/04 06:34:37;;;;;;;0.70;0.40;;;7.70;99.90;;;;;;5020211;28;20513;-73
2022/02/04 06:37:03;;;;;;;0.70;0.50;;;7.60;99.90;;;;;;5014572;28;20435;-74
2022/02/04 06:39:28;;;;;;;0.70;0.40;;;7.60;99.90;;;;;;5025920;28;20609;-74
2022/02/04 06:41:55;;;;;;;0.60;0.43;;;7.60;99.90;;;;;;5009607;28;20950;-75
2022/02/04 06:44:21;;;;;;;0.70;0.40;;;7.50;99.90;;;;;;5020224;28;20180;-73
2022/02/04 06:46:47;;;;;;;2.70;2.20;;;7.40;99.90;;;;;;5019206;28;20434;-73
2022/02/04 06:49:13;;;;;;;0.70;0.50;;;7.40;99.90;;;;;;5018411;28;20541;-73
2022/02/04 06:51:39;;;;;;;0.70;0.50;;;7.40;99.90;;;;;;5031878;28;20540;-73
2022/02/04 06:54:04;;;;;;;0.70;0.60;;;7.30;99.90;;;;;;5024885;28;20191;-73
2022/02/04 06:56:33;;;;;;;1.23;1.00;;;7.30;99.90;;;;;;5007047;28;20239;-73
2022/02/04 06:58:59;;;;;;;0.70;0.50;;;7.40;99.90;;;;;;5010065;28;20263;-74
2022/02/04 07:01:27;;;;;;;0.70;0.60;;;7.40;99.90;;;;;;5021594;28;20433;-74
2022/02/04 07:03:52;;;;;;;0.60;0.50;;;7.40;99.90;;;;;;5022834;28;20184;-74
2022/02/04 07:06:19;;;;;;;0.70;0.60;;;7.50;99.90;;;;;;5025090;28;20464;-73
2022/02/04 07:22:02;;;;;;;0.67;0.40;;;7.50;99.90;;;;;;5015994;28;20551;-74
2022/02/04 07:24:28;;;;;;;0.60;0.50;;;7.50;99.90;;;;;;5017393;28;20932;-74
2022/02/04 07:26:53;;;;;;;0.70;0.40;;;7.60;99.90;;;;;;5007602;28;20687;-75
2022/02/04 07:29:20;;;;;;;0.60;0.50;;;7.60;99.90;;;;;;5034464;28;20192;-73
2022/02/04 07:31:47;;;;;;;0.70;0.50;;;7.60;99.90;;;;;;5001958;28;20262;-73
2022/02/04 07:34:38;;;;;;;0.60;0.47;;;7.60;99.90;;;;;;5014944;28;20473;-73
2022/02/04 07:42:31;;;;;;;2.20;2.10;;;7.70;99.90;;;;;;5015023;28;20407;-73
2022/02/04 07:44:57;;;;;;;0.63;0.50;;;7.70;99.90;;;;;;4996364;28;20427;-73
2022/02/04 07:47:23;;;;;;;0.70;0.40;;;7.70;99.90;;;;;;5003628;28;20207;-73
2022/02/04 07:49:50;;;;;;;1.30;0.70;;;7.80;99.90;;;;;;5034922;28;20200;-74
2022/02/04 07:52:15;;;;;;;1.13;1.03;;;7.80;99.90;;;;;;5034793;28;20195;-75
2022/02/04 07:54:41;;;;;;;0.80;0.80;;;7.80;99.90;;;;;;4997764;28;20412;-75
2022/02/04 07:57:07;;;;;;;0.70;0.50;;;7.70;99.90;;;;;;5024299;28;20172;-73
2022/02/04 07:59:32;;;;;;;0.70;0.40;;;7.70;99.90;;;;;;5017629;28;20196;-73
2022/02/04 08:01:58;;;;;;;0.70;0.50;;;7.80;99.90;;;;;;5022461;28;20633;-73
2022/02/04 08:04:28;;;;;;;1.10;0.60;;;7.80;99.90;;;;;;5029583;28;20326;-74
2022/02/04 08:07:03;;;;;;;0.70;0.50;;;7.90;99.90;;;;;;5013404;28;20172;-72
2022/02/04 08:12:13;;;;;;;0.67;0.40;;;8.00;99.90;;;;;;5027204;28;20469;-74
2022/02/04 08:14:59;;;;;;;1.03;0.93;;;8.10;99.90;;;;;;4996033;28;20426;-75
2022/02/04 08:25:04;;;;;;;2.90;2.30;;;8.00;99.90;;;;;;5027865;28;20433;-73
2022/02/04 08:46:45;;;;;;;1.10;0.77;;;8.30;99.90;;;;;;5015355;28;20179;-72
2022/02/04 08:54:01;;;;;;;0.70;0.50;;;8.60;99.90;;;;;;5013935;28;20180;-75
2022/02/04 08:56:41;;;;;;;0.70;0.40;;;8.70;99.90;;;;;;5013802;28;20168;-76
2022/02/04 08:59:57;;;;;;;0.70;0.50;;;8.70;99.90;;;;;;4996425;28;20800;-76
2022/02/04 09:02:07;;;;;;;0.70;0.50;;;8.60;99.90;;;;;;5012498;28;20485;-75
2022/02/04 09:04:41;;;;;;;0.80;0.60;;;8.60;99.90;;;;;;5016554;28;20442;-75
2022/02/04 09:07:10;;;;;;;0.80;0.70;;;8.70;99.90;;;;;;5025347;28;20784;-75
2022/02/04 09:16:49;;;;;;;0.70;0.50;;;8.80;99.90;;;;;;5014058;28;20509;-76
2022/02/04 09:22:59;;;;;;;0.80;0.80;;;9.60;99.90;;;;;;5013803;28;20415;-73
2022/02/04 09:25:28;;;;;;;0.70;0.50;;;9.40;99.90;;;;;;5006779;28;20677;-74
2022/02/04 09:27:54;;;;;;;0.90;0.60;;;9.50;99.90;;;;;;5008245;28;20427;-74
2022/02/04 09:30:22;;;;;;;0.70;0.50;;;9.40;99.90;;;;;;5016546;28;20442;-74
2022/02/04 09:32:48;;;;;;;1.97;1.00;;;9.50;99.90;;;;;;5020986;28;20789;-75
2022/02/04 09:35:17;;;;;;;0.70;0.50;;;9.60;99.90;;;;;;5013398;28;20411;-73
2022/02/04 09:37:44;;;;;;;1.27;1.17;;;9.60;99.90;;;;;;5012085;28;20179;-73
2022/02/04 09:40:11;;;;;;;0.70;0.50;;;9.70;99.90;;;;;;5012048;28;20530;-73
2022/02/04 09:42:40;;;;;;;0.70;0.50;;;9.80;99.90;;;;;;5012439;28;20419;-73
2022/02/04 09:45:08;;;;;;;0.70;0.50;;;10.00;99.90;;;;;;5012552;28;20419;-73
2022/02/04 09:47:37;;;;;;;0.70;0.50;;;10.00;99.90;;;;;;4994338;28;20415;-74
2022/02/04 09:50:14;;;;;;;0.70;0.50;;;10.00;99.90;;;;;;5010457;28;20439;-72
2022/02/04 10:09:48;;;;;;;0.70;0.40;;;9.90;99.90;;;;;;5012145;28;20785;-74
2022/02/04 10:15:27;;;;;;;0.70;0.50;;;9.80;99.90;;;;;;5009474;28;20418;-74
2022/02/04 10:18:18;;;;;;;0.70;0.50;;;9.70;99.90;;;;;;5013569;28;20458;-75
2022/02/04 10:20:44;;;;;;;0.70;0.50;;;9.80;99.90;;;;;;4998433;28;20419;-74
2022/02/04 10:23:10;;;;;;;0.70;0.50;;;9.80;99.90;;;;;;5013872;28;20419;-74
2022/02/04 10:25:42;;;;;;;0.70;0.50;;;9.80;99.90;;;;;;4996602;28;20176;-74
2022/02/04 10:28:24;;;;;;;0.70;0.40;;;9.80;99.90;;;;;;5014325;28;20419;-74
2022/02/04 10:31:09;;;;;;;0.70;0.50;;;9.90;99.90;;;;;;5012122;28;20450;-75
2022/02/04 10:34:07;;;;;;;0.70;0.50;;;10.00;99.90;;;;;;5011205;28;20422;-74
2022/02/04 10:36:33;;;;;;;0.73;0.70;;;10.20;99.90;;;;;;5011568;28;20419;-75
2022/02/04 10:38:59;;;;;;;0.70;0.50;;;10.30;99.90;;;;;;5014114;28;20478;-75
2022/02/04 10:41:30;;;;;;;0.70;0.43;;;10.40;99.90;;;;;;5017067;28;20419;-76
2022/02/04 10:46:38;;;;;;;0.80;0.60;;;10.60;99.90;;;;;;5017910;28;20481;-75
2022/02/04 10:53:09;;;;;;;0.70;0.50;;;10.70;99.90;;;;;;5015461;28;20997;-72
2022/02/04 11:03:08;;;;;;;0.70;0.43;;;10.40;99.90;;;;;;5015411;28;20928;-74
2022/02/04 11:05:31;;;;;;;0.70;0.40;;;10.20;99.90;;;;;;5016956;28;20446;-74
2022/02/04 11:35:09;;;;;;;0.70;0.50;;;9.50;99.90;;;;;;5000138;28;20939;-73
2022/02/04 11:55:09;;;;;;;0.70;0.50;;;9.20;99.90;;;;;;5026002;28;20548;-73
2022/02/04 11:57:37;;;;;;;0.70;0.50;;;9.20;99.90;;;;;;5025627;28;20449;-74
2022/02/04 12:00:20;;;;;;;0.70;0.50;;;9.20;99.90;;;;;;5016298;28;20580;-74
2022/02/04 12:02:50;;;;;;;0.70;0.50;;;9.20;99.90;;;;;;5003262;28;20526;-74
2022/02/04 12:05:18;;;;;;;0.70;0.50;;;9.20;99.90;;;;;;5029300;28;20958;-73
2022/02/04 12:07:51;;;;;;;0.70;0.50;;;9.30;99.90;;;;;;5028160;28;20522;-73
2022/02/04 12:10:19;;;;;;;0.70;0.60;;;9.30;99.90;;;;;;5019818;28;20499;-72
2022/02/04 12:13:00;;;;;;;0.70;0.53;;;9.30;99.90;;;;;;5027153;28;20763;-73
2022/02/04 12:15:31;;;;;;;0.70;0.50;;;9.30;99.90;;;;;;5022065;28;20404;-73
2022/02/04 12:18:13;;;;;;;0.70;0.50;;;9.30;99.90;;;;;;5014195;28;20919;-73
2022/02/04 12:20:44;;;;;;;0.70;0.50;;;9.30;99.90;;;;;;5022276;28;20430;-72
2022/02/04 12:23:28;;;;;;;0.70;0.50;;;9.30;99.90;;;;;;5023622;28;20431;-73
2022/02/04 12:25:55;;;;;;;0.70;0.50;;;9.20;99.90;;;;;;5020784;28;20429;-74
2022/02/04 12:28:58;;;;;;;0.70;0.43;;;9.30;99.90;;;;;;5016181;28;20795;-74
2022/02/04 12:31:30;;;;;;;0.70;0.50;;;9.20;99.90;;;;;;5010005;28;20465;-74
2022/02/04 12:34:05;;;;;;;0.70;0.50;;;9.40;99.90;;;;;;5013234;28;20958;-74
2022/02/04 12:36:54;;;;;;;0.70;0.60;;;9.50;99.90;;;;;;5023907;28;20509;-72
2022/02/04 12:39:31;;;;;;;0.70;0.50;;;9.60;99.90;;;;;;5009941;28;20461;-73
2022/02/04 12:42:00;;;;;;;0.70;0.50;;;9.60;99.90;;;;;;5019515;28;20446;-73
2022/02/04 12:44:34;;;;;;;0.70;0.50;;;9.60;99.90;;;;;;5021366;28;20483;-72
2022/02/04 12:47:03;;;;;;;0.70;0.50;;;9.60;99.90;;;;;;5021612;28;20437;-72
2022/02/04 12:49:34;;;;;;;0.80;0.60;;;9.50;99.90;;;;;;5020054;28;20450;-73
2022/02/04 12:52:09;;;;;;;0.70;0.50;;;9.50;99.90;;;;;;5014917;28;20478;-73
2022/02/04 12:54:45;;;;;;;0.70;0.67;;;9.60;99.90;;;;;;4995030;28;20437;-73
2022/02/04 13:03:03;;;;;;;0.70;0.50;;;9.70;99.90;;;;;;5021382;28;20434;-73
2022/02/04 13:10:32;;;;;;;0.70;0.60;;;9.70;99.90;;;;;;5022220;28;20484;-74
2022/02/04 13:13:01;;;;;;;0.70;0.50;;;9.70;99.90;;;;;;5020523;28;20428;-73
2022/02/04 13:15:32;;;;;;;0.70;0.50;;;9.70;99.90;;;;;;5022039;28;20886;-71
2022/02/04 13:17:57;;;;;;;0.70;0.50;;;9.70;99.90;;;;;;5019316;28;20419;-73
2022/02/04 13:20:25;;;;;;;0.70;0.50;;;9.70;99.90;;;;;;5011931;28;20540;-73
2022/02/04 13:22:53;;;;;;;0.70;0.50;;;9.70;99.90;;;;;;5003279;28;22088;-74
2022/02/04 13:25:20;;;;;;;0.70;0.50;;;9.70;99.90;;;;;;5012637;28;20434;-74
2022/02/04 13:28:04;;;;;;;0.70;0.50;;;9.70;99.90;;;;;;5010533;28;20442;-72
2022/02/04 13:30:37;;;;;;;0.70;0.50;;;9.70;99.90;;;;;;5019164;28;20430;-72
2022/02/04 13:33:15;;;;;;;0.70;0.50;;;9.60;99.90;;;;;;4988407;28;20860;-73
2022/02/04 13:35:42;;;;;;;0.70;0.50;;;9.60;99.90;;;;;;5016376;28;20422;-71
2022/02/04 13:38:22;;;;;;;0.70;0.50;;;9.60;99.90;;;;;;5018127;28;20419;-72
2022/02/04 13:41:21;;;;;;;0.70;0.40;;;9.60;99.90;;;;;;4996198;28;20435;-67
2022/02/04 13:46:20;;;;;;;0.70;0.50;;;9.70;99.90;;;;;;5018710;28;20458;-73
2022/02/04 13:52:00;;;;;;;0.70;0.50;;;9.70;99.90;;;;;;5019530;28;20470;-74
2022/02/04 13:55:22;;;;;;;0.70;0.50;;;9.70;99.90;;;;;;5009766;28;20419;-72
2022/02/04 13:57:29;;;;;;;0.70;0.50;;;9.70;99.90;;;;;;5021303;28;20533;-72
2022/02/04 14:02:50;;;;;;;0.70;0.40;;;9.70;99.90;;;;;;5012924;28;20769;-73
2022/02/04 14:05:34;;;;;;;1.53;1.43;;;9.80;99.90;;;;;;5003444;28;20434;-71
2022/02/04 14:08:13;;;;;;;0.70;0.50;;;9.70;99.90;;;;;;5018860;28;20497;-72
2022/02/04 14:10:55;;;;;;;0.70;0.50;;;9.60;99.90;;;;;;5016670;28;20469;-72
2022/02/04 14:13:23;;;;;;;0.70;0.50;;;9.60;99.90;;;;;;4993942;28;20467;-74
2022/02/04 14:15:56;;;;;;;0.70;0.50;;;9.60;99.90;;;;;;5003519;28;20446;-72
2022/02/04 14:18:22;;;;;;;0.70;0.50;;;9.70;99.90;;;;;;5013694;28;20458;-72
2022/02/04 14:20:47;;;;;;;0.70;0.50;;;9.70;99.90;;;;;;5016433;28;20488;-72
2022/02/04 14:23:14;;;;;;;0.70;0.50;;;9.70;99.90;;;;;;5019938;28;20999;-71
2022/02/04 14:29:18;;;;;;;0.70;0.50;;;10.00;99.90;;;;;;5020046;28;20972;-71
2022/02/04 14:36:52;;;;;;;0.70;0.50;;;10.10;99.90;;;;;;5022101;28;20182;-70
2022/02/04 14:50:39;;;;;;;0.70;0.40;;;9.80;99.90;;;;;;5018742;28;20524;-71
2022/02/04 15:03:35;;;;;;;0.97;0.97;;;9.80;99.90;;;;;;5022711;28;20450;-70
2022/02/04 15:06:03;;;;;;;0.83;0.83;;;9.90;99.90;;;;;;4995027;28;20442;-70
2022/02/04 15:08:32;;;;;;;0.70;0.40;;;9.90;99.90;;;;;;5013801;28;20438;-71
2022/02/04 15:11:03;;;;;;;0.70;0.50;;;9.80;99.90;;;;;;5018967;28;20461;-70
2022/02/04 15:13:31;;;;;;;0.70;0.43;;;9.70;99.90;;;;;;5019485;28;20419;-71
2022/02/04 15:15:59;;;;;;;0.70;0.43;;;9.80;99.90;;;;;;5011489;28;20423;-70
2022/02/04 15:18:25;;;;;;;0.70;0.50;;;9.80;99.90;;;;;;5019601;28;21144;-70
2022/02/04 15:20:57;;;;;;;0.70;0.50;;;9.70;99.90;;;;;;5012896;28;20462;-70
2022/02/04 15:23:22;;;;;;;0.70;0.50;;;9.70;99.90;;;;;;5020225;28;20800;-72
2022/02/04 15:25:52;;;;;;;0.70;0.50;;;9.80;99.90;;;;;;5020570;28;20425;-71
2022/02/04 15:28:43;;;;;;;2.30;1.43;;;9.80;99.90;;;;;;5017955;28;20536;-72
2022/02/04 15:31:05;;;;;;;0.70;0.50;;;9.80;99.90;;;;;;5014076;28;20463;-72
2022/02/04 15:33:34;;;;;;;0.70;0.50;;;9.70;99.90;;;;;;5025724;28;20430;-72
2022/02/04 15:36:00;;;;;;;0.70;0.50;;;9.70;99.90;;;;;;5026627;28;20437;-72
2022/02/04 15:38:26;;;;;;;0.70;0.50;;;9.70;99.90;;;;;;5023249;28;20474;-72
2022/02/04 15:40:52;;;;;;;0.70;0.50;;;9.70;99.90;;;;;;4997613;28;20435;-72
2022/02/04 15:43:18;;;;;;;0.80;0.60;;;9.60;99.90;;;;;;5022093;28;20172;-72
2022/02/04 15:48:36;;;;;;;0.70;0.60;;;9.50;99.90;;;;;;5013317;28;20936;-72
2022/02/04 15:51:18;;;;;;;0.70;0.53;;;9.40;99.90;;;;;;5016091;28;20459;-68
2022/02/04 15:56:41;;;;;;;0.70;0.50;;;10.80;99.90;;;;;;5022873;28;20942;-68
2022/02/04 15:59:28;;;;;;;0.70;0.50;;;10.80;99.90;;;;;;5018583;28;20542;-68
2022/02/04 16:04:33;;;;;;;0.70;0.50;;;10.60;99.90;;;;;;5025091;28;20450;-72
2022/02/04 16:06:58;;;;;;;0.70;0.50;;;10.50;99.90;;;;;;5008420;28;20445;-73
2022/02/04 16:09:25;;;;;;;0.70;0.50;;;10.50;99.90;;;;;;4999303;28;20451;-72
2022/02/04 16:12:06;;;;;;;0.70;0.50;;;10.30;99.90;;;;;;5014326;28;20192;-73
2022/02/04 16:19:38;;;;;;;0.70;0.50;;;10.10;99.90;;;;;;5020632;28;20204;-74
2022/02/04 16:22:15;;;;;;;0.70;0.50;;;10.00;99.90;;;;;;5015112;28;20802;-74
2022/02/04 16:30:05;;;;;;;0.70;0.50;;;9.90;99.90;;;;;;5017787;28;20805;-72
2022/02/04 16:32:31;;;;;;;0.70;0.50;;;9.80;99.90;;;;;;5017731;28;20465;-71
2022/02/04 16:35:00;;;;;;;0.70;0.50;;;9.80;99.90;;;;;;5014862;28;21026;-72
2022/02/04 16:37:32;;;;;;;0.70;0.50;;;9.80;99.90;;;;;;5022650;28;20430;-72
2022/02/04 16:40:02;;;;;;;0.70;0.40;;;9.80;99.90;;;;;;5001343;28;20982;-72
2022/02/04 16:42:28;;;;;;;1.13;1.10;;;9.70;99.90;;;;;;5017798;28;20442;-73
2022/02/04 16:44:54;;;;;;;0.70;0.50;;;9.70;99.90;;;;;;5012973;28;20484;-72
2022/02/04 16:47:20;;;;;;;0.70;0.50;;;9.70;99.90;;;;;;4991834;28;20522;-73
2022/02/04 16:49:46;;;;;;;0.70;0.40;;;9.60;99.90;;;;;;5016885;28;20542;-78
2022/02/04 16:52:12;;;;;;;0.70;0.50;;;9.50;99.90;;;;;;5014286;28;20603;-76
2022/02/04 16:54:38;;;;;;;0.70;0.50;;;9.50;99.90;;;;;;4997742;28;20517;-76
2022/02/04 16:57:04;;;;;;;0.70;0.50;;;9.50;99.90;;;;;;4998004;28;20430;-75
2022/02/04 16:59:30;;;;;;;0.70;0.40;;;9.40;99.90;;;;;;5015466;28;20435;-74
2022/02/04 17:01:57;;;;;;;0.70;0.50;;;9.30;99.90;;;;;;5000163;28;20427;-76
2022/02/04 17:04:23;;;;;;;1.00;0.60;;;9.20;99.90;;;;;;5008322;28;20514;-76
2022/02/04 17:06:57;;;;;;;0.70;0.50;;;9.20;99.90;;;;;;5006799;28;20947;-76
2022/02/04 17:09:28;;;;;;;1.20;1.10;;;9.10;99.90;;;;;;4997172;28;20490;-74
2022/02/04 17:12:06;;;;;;;0.70;0.50;;;8.90;99.90;;;;;;5020654;28;20455;-75
2022/02/04 17:14:34;;;;;;;0.70;0.50;;;8.90;99.90;;;;;;5012152;28;20443;-76
2022/02/04 17:17:03;;;;;;;0.70;0.40;;;8.90;99.90;;;;;;4995807;28;20416;-76
2022/02/04 17:19:34;;;;;;;0.70;0.40;;;8.80;99.90;;;;;;4995949;28;20439;-77
2022/02/04 17:22:03;;;;;;;0.70;0.50;;;8.70;99.90;;;;;;5012629;28;20791;-76
2022/02/04 17:24:29;;;;;;;0.70;0.50;;;8.60;99.90;;;;;;5012910;28;20419;-76
2022/02/04 17:26:55;;;;;;;0.70;0.50;;;8.60;99.90;;;;;;5013146;28;20459;-76
2022/02/04 17:29:21;;;;;;;0.70;0.50;;;8.60;99.90;;;;;;5012022;28;20482;-76
2022/02/04 17:31:46;;;;;;;0.70;0.50;;;8.50;99.90;;;;;;5010179;28;20227;-75
2022/02/04 17:34:13;;;;;;;0.70;0.50;;;8.50;99.90;;;;;;4995793;28;20172;-76
2022/02/04 17:36:39;;;;;;;0.70;0.50;;;8.40;99.90;;;;;;5013758;28;20168;-77
2022/02/04 17:39:17;;;;;;;0.70;0.60;;;8.30;99.90;;;;;;5013457;28;20582;-75
2022/02/04 17:41:45;;;;;;;0.70;0.50;;;8.30;99.90;;;;;;5012095;28;20430;-77
2022/02/04 17:44:14;;;;;;;0.70;0.60;;;8.20;99.90;;;;;;5013021;28;20427;-76
2022/02/04 17:46:40;;;;;;;0.70;0.67;;;8.20;99.90;;;;;;5012547;28;20424;-77
2022/02/04 17:49:15;;;;;;;0.70;0.50;;;8.20;99.90;;;;;;5012740;28;20470;-77
2022/02/04 17:51:55;;;;;;;0.70;0.40;;;8.10;99.90;;;;;;5010907;28;20462;-76
2022/02/04 17:54:31;;;;;;;0.70;0.60;;;8.00;99.90;;;;;;5012382;28;20418;-75
2022/02/04 17:57:08;;;;;;;0.70;0.50;;;8.00;99.90;;;;;;5012432;28;20800;-74
2022/02/04 18:00:01;;;;;;;0.70;0.50;;;7.90;99.90;;;;;;5012492;28;20443;-74
2022/02/04 18:02:31;;;;;;;0.70;0.50;;;7.90;99.90;;;;;;5012694;28;20430;-75
2022/02/04 18:07:37;;;;;;;0.70;0.63;;;7.80;99.90;;;;;;5012459;28;20435;-75
2022/02/04 18:10:04;;;;;;;0.70;0.50;;;7.80;99.90;;;;;;5012000;28;20504;-76
2022/02/04 18:12:35;;;;;;;0.70;0.50;;;7.80;99.90;;;;;;5012246;28;20196;-75
2022/02/04 18:15:01;;;;;;;0.70;0.50;;;7.80;99.90;;;;;;5011969;28;20423;-75
2022/02/04 18:17:28;;;;;;;0.70;0.40;;;7.80;99.90;;;;;;5012386;28;20415;-75
2022/02/04 18:19:53;;;;;;;1.00;0.70;;;7.80;99.90;;;;;;5011705;28;20545;-75
2022/02/04 18:22:19;;;;;;;0.70;0.50;;;7.80;99.90;;;;;;4995029;28;21107;-75
2022/02/04 18:24:45;;;;;;;0.70;0.50;;;7.60;99.90;;;;;;5011831;28;20260;-75
2022/02/04 18:27:10;;;;;;;0.70;0.40;;;7.60;99.90;;;;;;5012463;28;20263;-75
2022/02/04 18:29:40;;;;;;;0.70;0.40;;;7.60;99.90;;;;;;5012542;28;20196;-75
2022/02/04 18:32:06;;;;;;;0.70;0.50;;;7.50;99.90;;;;;;5011518;28;20203;-75
2022/02/04 18:34:32;;;;;;;0.70;0.40;;;7.50;99.90;;;;;;5012876;28;20434;-75
2022/02/04 18:37:00;;;;;;;0.70;0.50;;;7.50;99.90;;;;;;5012296;28;20480;-75
2022/02/04 18:40:27;;;;;;;0.70;0.50;;;7.40;99.90;;;;;;5012096;28;20458;-76
2022/02/04 18:44:55;;;;;;;0.70;0.50;;;7.30;99.90;;;;;;5012181;28;20506;-75
2022/02/04 18:49:52;;;;;;;0.70;0.50;;;7.20;99.90;;;;;;5011201;28;20482;-75
2022/02/04 18:57:28;;;;;;;0.70;0.43;;;7.00;99.90;;;;;;5012453;28;20183;-74
2022/02/04 18:59:58;;;;;;;0.77;0.77;;;6.90;99.90;;;;;;5014361;28;20447;-75
2022/02/04 19:02:25;;;;;;;0.70;0.50;;;6.80;99.90;;;;;;5015504;28;20187;-75
2022/02/04 19:04:58;;;;;;;0.70;0.53;;;6.60;99.90;;;;;;5015529;28;20446;-75
2022/02/04 19:07:34;;;;;;;0.70;0.50;;;6.50;99.90;;;;;;5015718;28;20431;-76
2022/02/04 19:10:00;;;;;;;0.70;0.40;;;6.30;99.90;;;;;;5014226;28;20450;-75
2022/02/04 19:12:33;;;;;;;0.70;0.40;;;6.10;99.90;;;;;;5014695;28;21034;-75
2022/02/04 19:15:23;;;;;;;1.20;0.70;;;6.00;99.90;;;;;;5016020;28;20230;-76
2022/02/04 19:17:55;;;;;;;0.70;0.50;;;5.90;99.90;;;;;;5015385;28;20447;-75
2022/02/04 19:20:33;;;;;;;0.70;0.40;;;5.70;99.90;;;;;;5014283;28;20439;-74
2022/02/04 19:23:04;;;;;;;0.70;0.40;;;5.60;99.90;;;;;;4999433;28;20431;-75
2022/02/04 19:25:34;;;;;;;0.70;0.50;;;5.50;99.90;;;;;;5015253;28;20427;-75
2022/02/04 19:28:00;;;;;;;1.27;1.17;;;5.40;99.90;;;;;;5014161;28;20529;-74
2022/02/04 19:30:26;;;;;;;0.70;0.50;;;5.30;99.90;;;;;;4997122;28;20505;-75